sensor_id;sensor_type;location;lat;lon;timestamp;temperature;humidity
15574;DHT22;7888;46.748;8.102;2023-06-04T00:01:56;18.20;47.30
15574;DHT22;7888;46.748;8.102;2023-06-04T00:04:21;18.20;47.50
15574;DHT22;7888;46.748;8.102;2023-06-04T00:06:48;18.20;47.50
15574;DHT22;7888;46.748;8.102;2023-06-04T00:09:14;18.20;47.50
15574;DHT22;7888;46.748;8.102;2023-06-04T00:11:41;18.10;47.60
15574;DHT22;7888;46.748;8.102;2023-06-04T00:14:06;18.10;47.60
15574;DHT22;7888;46.748;8.102;2023-06-04T00:16:32;18.10;47.60
15574;DHT22;7888;46.748;8.102;2023-06-04T00:19:01;18.10;47.70
15574;DHT22;7888;46.748;8.102;2023-06-04T00:21:27;18.00;47.70
15574;DHT22;7888;46.748;8.102;2023-06-04T00:23:53;18.00;47.80
15574;DHT22;7888;46.748;8.102;2023-06-04T00:26:19;18.00;47.90
15574;DHT22;7888;46.748;8.102;2023-06-04T00:28:45;17.90;47.90
15574;DHT22;7888;46.748;8.102;2023-06-04T00:31:11;17.90;48.00
15574;DHT22;7888;46.748;8.102;2023-06-04T00:33:39;17.90;48.10
15574;DHT22;7888;46.748;8.102;2023-06-04T00:36:05;17.90;48.00
15574;DHT22;7888;46.748;8.102;2023-06-04T00:38:31;17.90;48.20
15574;DHT22;7888;46.748;8.102;2023-06-04T00:40:56;17.80;48.10
15574;DHT22;7888;46.748;8.102;2023-06-04T00:43:23;17.80;48.10
15574;DHT22;7888;46.748;8.102;2023-06-04T00:45:52;17.80;48.20
15574;DHT22;7888;46.748;8.102;2023-06-04T00:48:18;17.80;48.30
15574;DHT22;7888;46.748;8.102;2023-06-04T00:50:44;17.80;48.30
15574;DHT22;7888;46.748;8.102;2023-06-04T00:53:11;17.80;48.40
15574;DHT22;7888;46.748;8.102;2023-06-04T00:55:37;17.70;48.60
15574;DHT22;7888;46.748;8.102;2023-06-04T00:58:02;17.70;48.50
15574;DHT22;7888;46.748;8.102;2023-06-04T01:00:30;17.70;48.50
15574;DHT22;7888;46.748;8.102;2023-06-04T01:02:58;17.70;48.60
15574;DHT22;7888;46.748;8.102;2023-06-04T01:08:15;17.60;48.70
15574;DHT22;7888;46.748;8.102;2023-06-04T01:10:56;17.60;48.50
15574;DHT22;7888;46.748;8.102;2023-06-04T01:13:24;17.60;48.60
15574;DHT22;7888;46.748;8.102;2023-06-04T01:15:50;17.60;48.40
15574;DHT22;7888;46.748;8.102;2023-06-04T01:18:21;17.60;48.40
15574;DHT22;7888;46.748;8.102;2023-06-04T01:21:14;17.60;48.70
15574;DHT22;7888;46.748;8.102;2023-06-04T01:23:49;17.50;48.80
15574;DHT22;7888;46.748;8.102;2023-06-04T01:26:26;17.50;48.50
15574;DHT22;7888;46.748;8.102;2023-06-04T01:28:55;17.50;48.40
15574;DHT22;7888;46.748;8.102;2023-06-04T01:31:22;17.50;48.50
15574;DHT22;7888;46.748;8.102;2023-06-04T01:33:55;17.50;48.60
15574;DHT22;7888;46.748;8.102;2023-06-04T01:36:23;17.40;48.80
15574;DHT22;7888;46.748;8.102;2023-06-04T01:38:50;17.40;48.50
15574;DHT22;7888;46.748;8.102;2023-06-04T01:41:16;17.40;48.50
15574;DHT22;7888;46.748;8.102;2023-06-04T01:43:43;17.40;48.70
15574;DHT22;7888;46.748;8.102;2023-06-04T01:46:09;17.40;48.70
15574;DHT22;7888;46.748;8.102;2023-06-04T01:48:35;17.30;48.70
15574;DHT22;7888;46.748;8.102;2023-06-04T01:51:01;17.30;48.80
15574;DHT22;7888;46.748;8.102;2023-06-04T01:53:27;17.30;48.80
15574;DHT22;7888;46.748;8.102;2023-06-04T01:55:53;17.30;48.80
15574;DHT22;7888;46.748;8.102;2023-06-04T01:58:20;17.30;48.70
15574;DHT22;7888;46.748;8.102;2023-06-04T02:00:53;17.30;48.70
15574;DHT22;7888;46.748;8.102;2023-06-04T02:03:21;17.30;48.80
15574;DHT22;7888;46.748;8.102;2023-06-04T02:05:48;17.30;48.80
15574;DHT22;7888;46.748;8.102;2023-06-04T02:08:15;17.20;48.70
15574;DHT22;7888;46.748;8.102;2023-06-04T02:10:45;17.20;48.80
15574;DHT22;7888;46.748;8.102;2023-06-04T02:13:12;17.20;48.90
15574;DHT22;7888;46.748;8.102;2023-06-04T02:15:38;17.20;48.90
15574;DHT22;7888;46.748;8.102;2023-06-04T02:20:45;17.10;49.30
15574;DHT22;7888;46.748;8.102;2023-06-04T02:23:11;17.20;49.10
15574;DHT22;7888;46.748;8.102;2023-06-04T02:25:38;17.10;49.10
15574;DHT22;7888;46.748;8.102;2023-06-04T02:28:04;17.10;49.10
15574;DHT22;7888;46.748;8.102;2023-06-04T02:30:29;17.10;49.10
15574;DHT22;7888;46.748;8.102;2023-06-04T02:32:55;17.10;49.20
15574;DHT22;7888;46.748;8.102;2023-06-04T02:35:21;17.10;49.20
15574;DHT22;7888;46.748;8.102;2023-06-04T02:37:49;17.10;49.10
15574;DHT22;7888;46.748;8.102;2023-06-04T02:40:16;17.10;49.10
15574;DHT22;7888;46.748;8.102;2023-06-04T02:42:42;17.10;49.10
15574;DHT22;7888;46.748;8.102;2023-06-04T02:45:09;17.00;49.10
15574;DHT22;7888;46.748;8.102;2023-06-04T02:47:35;17.00;49.10
15574;DHT22;7888;46.748;8.102;2023-06-04T02:50:01;17.00;49.20
15574;DHT22;7888;46.748;8.102;2023-06-04T02:52:28;17.00;49.20
15574;DHT22;7888;46.748;8.102;2023-06-04T02:54:56;17.00;49.20
15574;DHT22;7888;46.748;8.102;2023-06-04T02:57:22;17.00;49.20
15574;DHT22;7888;46.748;8.102;2023-06-04T02:59:48;17.00;49.20
15574;DHT22;7888;46.748;8.102;2023-06-04T03:02:14;17.00;49.40
15574;DHT22;7888;46.748;8.102;2023-06-04T03:04:42;16.90;49.40
15574;DHT22;7888;46.748;8.102;2023-06-04T03:07:09;16.90;49.50
15574;DHT22;7888;46.748;8.102;2023-06-04T03:09:37;16.90;49.50
15574;DHT22;7888;46.748;8.102;2023-06-04T03:12:03;16.90;49.70
15574;DHT22;7888;46.748;8.102;2023-06-04T03:14:30;16.80;49.70
15574;DHT22;7888;46.748;8.102;2023-06-04T03:17:01;16.80;49.70
15574;DHT22;7888;46.748;8.102;2023-06-04T03:19:37;16.80;49.80
15574;DHT22;7888;46.748;8.102;2023-06-04T03:22:04;16.80;49.80
15574;DHT22;7888;46.748;8.102;2023-06-04T03:24:36;16.80;49.80
15574;DHT22;7888;46.748;8.102;2023-06-04T03:27:07;16.80;49.80
15574;DHT22;7888;46.748;8.102;2023-06-04T03:29:34;16.80;49.80
15574;DHT22;7888;46.748;8.102;2023-06-04T03:32:01;16.80;49.90
15574;DHT22;7888;46.748;8.102;2023-06-04T03:34:27;16.70;49.80
15574;DHT22;7888;46.748;8.102;2023-06-04T03:36:57;16.70;49.90
15574;DHT22;7888;46.748;8.102;2023-06-04T03:39:23;16.70;49.90
15574;DHT22;7888;46.748;8.102;2023-06-04T03:41:49;16.70;49.90
15574;DHT22;7888;46.748;8.102;2023-06-04T03:44:16;16.70;50.10
15574;DHT22;7888;46.748;8.102;2023-06-04T03:46:43;16.70;50.10
15574;DHT22;7888;46.748;8.102;2023-06-04T03:49:10;16.70;50.30
15574;DHT22;7888;46.748;8.102;2023-06-04T03:51:37;16.70;50.20
15574;DHT22;7888;46.748;8.102;2023-06-04T03:54:03;16.60;50.20
15574;DHT22;7888;46.748;8.102;2023-06-04T03:56:30;16.60;50.10
15574;DHT22;7888;46.748;8.102;2023-06-04T03:58:56;16.60;50.40
15574;DHT22;7888;46.748;8.102;2023-06-04T04:01:22;16.70;50.50
15574;DHT22;7888;46.748;8.102;2023-06-04T04:03:49;16.60;50.60
15574;DHT22;7888;46.748;8.102;2023-06-04T04:06:16;16.60;50.70
15574;DHT22;7888;46.748;8.102;2023-06-04T04:08:43;16.70;50.80
15574;DHT22;7888;46.748;8.102;2023-06-04T04:11:15;16.70;50.80
15574;DHT22;7888;46.748;8.102;2023-06-04T04:13:41;16.70;51.20
15574;DHT22;7888;46.748;8.102;2023-06-04T04:16:06;16.70;50.90
15574;DHT22;7888;46.748;8.102;2023-06-04T04:18:33;16.70;50.90
15574;DHT22;7888;46.748;8.102;2023-06-04T04:21:00;16.80;50.80
15574;DHT22;7888;46.748;8.102;2023-06-04T04:23:26;16.80;50.80
15574;DHT22;7888;46.748;8.102;2023-06-04T04:25:53;16.80;50.90
15574;DHT22;7888;46.748;8.102;2023-06-04T04:28:22;16.80;50.90
15574;DHT22;7888;46.748;8.102;2023-06-04T04:30:48;16.90;51.10
15574;DHT22;7888;46.748;8.102;2023-06-04T04:33:14;16.90;51.20
15574;DHT22;7888;46.748;8.102;2023-06-04T04:35:41;16.90;51.20
15574;DHT22;7888;46.748;8.102;2023-06-04T04:38:08;17.00;51.30
15574;DHT22;7888;46.748;8.102;2023-06-04T04:40:35;17.00;51.30
15574;DHT22;7888;46.748;8.102;2023-06-04T04:43:01;17.00;51.30
15574;DHT22;7888;46.748;8.102;2023-06-04T04:45:26;17.10;51.20
15574;DHT22;7888;46.748;8.102;2023-06-04T04:47:52;17.10;51.20
15574;DHT22;7888;46.748;8.102;2023-06-04T04:50:18;17.10;51.30
15574;DHT22;7888;46.748;8.102;2023-06-04T04:52:44;17.10;51.30
15574;DHT22;7888;46.748;8.102;2023-06-04T04:55:09;17.10;51.30
15574;DHT22;7888;46.748;8.102;2023-06-04T04:57:37;17.20;51.40
15574;DHT22;7888;46.748;8.102;2023-06-04T05:00:04;17.20;51.50
15574;DHT22;7888;46.748;8.102;2023-06-04T05:02:31;17.20;51.40
15574;DHT22;7888;46.748;8.102;2023-06-04T05:04:57;17.20;51.30
15574;DHT22;7888;46.748;8.102;2023-06-04T05:07:22;17.20;51.40
15574;DHT22;7888;46.748;8.102;2023-06-04T05:09:50;17.30;51.60
15574;DHT22;7888;46.748;8.102;2023-06-04T05:12:16;17.30;51.70
15574;DHT22;7888;46.748;8.102;2023-06-04T05:14:41;17.30;51.70
15574;DHT22;7888;46.748;8.102;2023-06-04T05:17:07;17.40;51.60
15574;DHT22;7888;46.748;8.102;2023-06-04T05:19:36;17.40;51.40
15574;DHT22;7888;46.748;8.102;2023-06-04T05:22:03;17.50;51.30
15574;DHT22;7888;46.748;8.102;2023-06-04T05:24:29;17.50;51.40
15574;DHT22;7888;46.748;8.102;2023-06-04T05:26:56;17.50;51.50
15574;DHT22;7888;46.748;8.102;2023-06-04T05:29:23;17.60;51.70
15574;DHT22;7888;46.748;8.102;2023-06-04T05:31:49;17.60;51.70
15574;DHT22;7888;46.748;8.102;2023-06-04T05:34:15;17.60;52.20
15574;DHT22;7888;46.748;8.102;2023-06-04T05:36:44;17.70;51.90
15574;DHT22;7888;46.748;8.102;2023-06-04T05:39:10;17.70;51.90
15574;DHT22;7888;46.748;8.102;2023-06-04T05:41:36;17.80;51.80
15574;DHT22;7888;46.748;8.102;2023-06-04T05:44:03;17.80;51.60
15574;DHT22;7888;46.748;8.102;2023-06-04T05:46:29;17.90;51.80
15574;DHT22;7888;46.748;8.102;2023-06-04T05:48:55;18.00;51.90
15574;DHT22;7888;46.748;8.102;2023-06-04T05:51:20;18.00;51.90
15574;DHT22;7888;46.748;8.102;2023-06-04T05:53:47;18.10;51.80
15574;DHT22;7888;46.748;8.102;2023-06-04T05:56:13;18.10;51.50
15574;DHT22;7888;46.748;8.102;2023-06-04T05:58:39;18.20;51.40
15574;DHT22;7888;46.748;8.102;2023-06-04T06:01:05;18.30;51.20
15574;DHT22;7888;46.748;8.102;2023-06-04T06:03:31;18.30;51.10
15574;DHT22;7888;46.748;8.102;2023-06-04T06:05:57;18.40;51.20
15574;DHT22;7888;46.748;8.102;2023-06-04T06:08:23;18.40;51.00
15574;DHT22;7888;46.748;8.102;2023-06-04T06:10:50;18.40;50.90
15574;DHT22;7888;46.748;8.102;2023-06-04T06:13:15;18.50;51.00
15574;DHT22;7888;46.748;8.102;2023-06-04T06:15:41;18.60;51.00
15574;DHT22;7888;46.748;8.102;2023-06-04T06:18:08;18.60;51.10
15574;DHT22;7888;46.748;8.102;2023-06-04T06:20:34;18.70;51.10
15574;DHT22;7888;46.748;8.102;2023-06-04T06:23:06;18.80;50.90
15574;DHT22;7888;46.748;8.102;2023-06-04T06:25:32;18.90;50.50
15574;DHT22;7888;46.748;8.102;2023-06-04T06:27:58;19.10;50.70
15574;DHT22;7888;46.748;8.102;2023-06-04T06:30:24;19.20;50.70
15574;DHT22;7888;46.748;8.102;2023-06-04T06:32:50;19.30;50.60
15574;DHT22;7888;46.748;8.102;2023-06-04T06:35:17;19.50;50.40
15574;DHT22;7888;46.748;8.102;2023-06-04T06:37:43;19.60;50.10
15574;DHT22;7888;46.748;8.102;2023-06-04T06:40:09;19.70;50.00
15574;DHT22;7888;46.748;8.102;2023-06-04T06:42:36;19.80;49.60
15574;DHT22;7888;46.748;8.102;2023-06-04T06:45:02;19.90;49.40
15574;DHT22;7888;46.748;8.102;2023-06-04T06:47:27;20.00;49.30
15574;DHT22;7888;46.748;8.102;2023-06-04T06:49:53;20.10;49.20
15574;DHT22;7888;46.748;8.102;2023-06-04T06:52:20;20.10;49.10
15574;DHT22;7888;46.748;8.102;2023-06-04T06:54:46;20.20;49.10
15574;DHT22;7888;46.748;8.102;2023-06-04T06:57:12;20.30;48.90
15574;DHT22;7888;46.748;8.102;2023-06-04T06:59:38;20.40;48.70
15574;DHT22;7888;46.748;8.102;2023-06-04T07:02:05;20.40;48.20
15574;DHT22;7888;46.748;8.102;2023-06-04T07:04:31;20.50;48.00
15574;DHT22;7888;46.748;8.102;2023-06-04T07:06:57;20.50;48.00
15574;DHT22;7888;46.748;8.102;2023-06-04T07:09:23;20.60;47.60
15574;DHT22;7888;46.748;8.102;2023-06-04T07:11:49;20.70;47.30
15574;DHT22;7888;46.748;8.102;2023-06-04T07:14:15;20.90;47.40
15574;DHT22;7888;46.748;8.102;2023-06-04T07:16:40;21.00;47.00
15574;DHT22;7888;46.748;8.102;2023-06-04T07:19:06;21.00;47.20
15574;DHT22;7888;46.748;8.102;2023-06-04T07:21:32;21.10;47.00
15574;DHT22;7888;46.748;8.102;2023-06-04T07:23:57;21.20;46.80
15574;DHT22;7888;46.748;8.102;2023-06-04T07:26:23;21.30;46.80
15574;DHT22;7888;46.748;8.102;2023-06-04T07:28:51;21.40;46.60
15574;DHT22;7888;46.748;8.102;2023-06-04T07:31:17;21.50;46.80
15574;DHT22;7888;46.748;8.102;2023-06-04T07:33:43;21.60;46.80
15574;DHT22;7888;46.748;8.102;2023-06-04T07:36:18;21.70;46.60
15574;DHT22;7888;46.748;8.102;2023-06-04T07:38:43;21.90;46.20
15574;DHT22;7888;46.748;8.102;2023-06-04T07:41:10;22.00;46.40
15574;DHT22;7888;46.748;8.102;2023-06-04T07:43:36;22.20;46.30
15574;DHT22;7888;46.748;8.102;2023-06-04T07:46:03;22.30;46.20
15574;DHT22;7888;46.748;8.102;2023-06-04T07:48:29;22.40;46.20
15574;DHT22;7888;46.748;8.102;2023-06-04T07:50:58;22.60;45.90
15574;DHT22;7888;46.748;8.102;2023-06-04T07:53:25;22.70;45.70
15574;DHT22;7888;46.748;8.102;2023-06-04T07:55:51;22.80;45.20
15574;DHT22;7888;46.748;8.102;2023-06-04T07:58:18;23.00;45.10
15574;DHT22;7888;46.748;8.102;2023-06-04T08:00:43;23.10;44.50
15574;DHT22;7888;46.748;8.102;2023-06-04T08:03:09;23.30;44.20
15574;DHT22;7888;46.748;8.102;2023-06-04T08:05:36;23.40;44.10
15574;DHT22;7888;46.748;8.102;2023-06-04T08:08:02;23.50;43.90
15574;DHT22;7888;46.748;8.102;2023-06-04T08:10:29;23.70;43.60
15574;DHT22;7888;46.748;8.102;2023-06-04T08:12:56;23.80;43.60
15574;DHT22;7888;46.748;8.102;2023-06-04T08:15:22;23.90;43.50
15574;DHT22;7888;46.748;8.102;2023-06-04T08:17:48;24.10;43.30
15574;DHT22;7888;46.748;8.102;2023-06-04T08:20:15;24.20;43.10
15574;DHT22;7888;46.748;8.102;2023-06-04T08:22:41;24.30;43.00
15574;DHT22;7888;46.748;8.102;2023-06-04T08:25:07;24.50;43.00
15574;DHT22;7888;46.748;8.102;2023-06-04T08:27:34;24.70;42.70
15574;DHT22;7888;46.748;8.102;2023-06-04T08:30:01;24.80;42.30
15574;DHT22;7888;46.748;8.102;2023-06-04T08:32:27;25.00;42.00
15574;DHT22;7888;46.748;8.102;2023-06-04T08:34:54;25.10;41.80
15574;DHT22;7888;46.748;8.102;2023-06-04T08:37:20;25.30;41.80
15574;DHT22;7888;46.748;8.102;2023-06-04T08:39:46;25.40;41.70
15574;DHT22;7888;46.748;8.102;2023-06-04T08:42:31;25.50;41.50
15574;DHT22;7888;46.748;8.102;2023-06-04T08:45:03;25.60;40.60
15574;DHT22;7888;46.748;8.102;2023-06-04T08:47:33;25.70;41.20
15574;DHT22;7888;46.748;8.102;2023-06-04T08:50:02;25.80;40.80
15574;DHT22;7888;46.748;8.102;2023-06-04T08:52:28;25.90;40.90
15574;DHT22;7888;46.748;8.102;2023-06-04T08:54:54;26.00;40.80
15574;DHT22;7888;46.748;8.102;2023-06-04T08:57:21;26.10;40.60
15574;DHT22;7888;46.748;8.102;2023-06-04T08:59:47;26.20;40.50
15574;DHT22;7888;46.748;8.102;2023-06-04T09:02:17;26.30;40.50
15574;DHT22;7888;46.748;8.102;2023-06-04T09:04:44;26.40;39.80
15574;DHT22;7888;46.748;8.102;2023-06-04T09:07:13;26.50;40.20
15574;DHT22;7888;46.748;8.102;2023-06-04T09:09:41;26.60;39.70
15574;DHT22;7888;46.748;8.102;2023-06-04T09:12:11;26.80;39.80
15574;DHT22;7888;46.748;8.102;2023-06-04T09:14:40;26.90;39.60
15574;DHT22;7888;46.748;8.102;2023-06-04T09:17:06;27.00;39.60
15574;DHT22;7888;46.748;8.102;2023-06-04T09:19:32;27.10;39.70
15574;DHT22;7888;46.748;8.102;2023-06-04T09:21:59;27.30;39.90
15574;DHT22;7888;46.748;8.102;2023-06-04T09:24:40;27.50;39.60
15574;DHT22;7888;46.748;8.102;2023-06-04T09:27:17;27.60;38.50
15574;DHT22;7888;46.748;8.102;2023-06-04T09:29:53;27.80;37.70
15574;DHT22;7888;46.748;8.102;2023-06-04T09:32:25;27.90;37.90
15574;DHT22;7888;46.748;8.102;2023-06-04T09:35:13;28.10;37.80
15574;DHT22;7888;46.748;8.102;2023-06-04T09:37:41;28.10;37.30
15574;DHT22;7888;46.748;8.102;2023-06-04T09:40:10;28.20;37.80
15574;DHT22;7888;46.748;8.102;2023-06-04T09:42:46;28.30;37.30
15574;DHT22;7888;46.748;8.102;2023-06-04T09:45:37;28.30;37.00
15574;DHT22;7888;46.748;8.102;2023-06-04T09:48:03;28.40;36.50
15574;DHT22;7888;46.748;8.102;2023-06-04T09:50:32;28.40;37.00
15574;DHT22;7888;46.748;8.102;2023-06-04T09:53:19;28.50;36.90
15574;DHT22;7888;46.748;8.102;2023-06-04T09:55:58;28.60;36.70
15574;DHT22;7888;46.748;8.102;2023-06-04T09:58:26;28.60;36.40
15574;DHT22;7888;46.748;8.102;2023-06-04T10:00:58;28.70;36.70
15574;DHT22;7888;46.748;8.102;2023-06-04T10:03:34;28.80;36.10
15574;DHT22;7888;46.748;8.102;2023-06-04T10:06:03;28.80;35.60
15574;DHT22;7888;46.748;8.102;2023-06-04T10:08:31;28.80;35.90
15574;DHT22;7888;46.748;8.102;2023-06-04T10:11:00;28.90;36.00
15574;DHT22;7888;46.748;8.102;2023-06-04T10:13:35;28.90;36.00
15574;DHT22;7888;46.748;8.102;2023-06-04T10:16:32;28.90;35.50
15574;DHT22;7888;46.748;8.102;2023-06-04T10:18:59;29.00;36.30
15574;DHT22;7888;46.748;8.102;2023-06-04T10:21:26;29.00;36.20
15574;DHT22;7888;46.748;8.102;2023-06-04T10:23:53;29.10;36.30
15574;DHT22;7888;46.748;8.102;2023-06-04T10:26:19;29.20;36.40
15574;DHT22;7888;46.748;8.102;2023-06-04T10:28:45;29.30;36.90
15574;DHT22;7888;46.748;8.102;2023-06-04T10:31:12;29.30;35.80
15574;DHT22;7888;46.748;8.102;2023-06-04T10:33:38;29.30;35.90
15574;DHT22;7888;46.748;8.102;2023-06-04T10:36:19;29.30;35.90
15574;DHT22;7888;46.748;8.102;2023-06-04T10:38:50;29.40;35.30
15574;DHT22;7888;46.748;8.102;2023-06-04T10:41:21;29.40;35.90
15574;DHT22;7888;46.748;8.102;2023-06-04T10:43:49;29.40;35.70
15574;DHT22;7888;46.748;8.102;2023-06-04T10:46:19;29.50;35.80
15574;DHT22;7888;46.748;8.102;2023-06-04T10:48:49;29.60;35.80
15574;DHT22;7888;46.748;8.102;2023-06-04T10:51:28;29.60;35.60
15574;DHT22;7888;46.748;8.102;2023-06-04T10:54:00;29.60;35.70
15574;DHT22;7888;46.748;8.102;2023-06-04T10:56:28;29.70;35.80
15574;DHT22;7888;46.748;8.102;2023-06-04T10:58:55;29.70;35.70
15574;DHT22;7888;46.748;8.102;2023-06-04T11:03:54;29.70;35.20
15574;DHT22;7888;46.748;8.102;2023-06-04T11:06:22;29.70;35.50
15574;DHT22;7888;46.748;8.102;2023-06-04T11:08:48;29.70;35.50
15574;DHT22;7888;46.748;8.102;2023-06-04T11:11:15;29.70;35.50
15574;DHT22;7888;46.748;8.102;2023-06-04T11:13:42;29.70;35.80
15574;DHT22;7888;46.748;8.102;2023-06-04T11:16:19;29.70;35.50
15574;DHT22;7888;46.748;8.102;2023-06-04T11:18:56;29.70;34.90
15574;DHT22;7888;46.748;8.102;2023-06-04T11:21:24;29.60;34.90
15574;DHT22;7888;46.748;8.102;2023-06-04T11:24:00;29.60;35.40
15574;DHT22;7888;46.748;8.102;2023-06-04T11:26:37;29.60;35.40
15574;DHT22;7888;46.748;8.102;2023-06-04T11:29:06;29.70;35.30
15574;DHT22;7888;46.748;8.102;2023-06-04T11:31:47;29.70;35.30
15574;DHT22;7888;46.748;8.102;2023-06-04T11:34:30;29.80;35.30
15574;DHT22;7888;46.748;8.102;2023-06-04T11:37:10;29.90;35.40
15574;DHT22;7888;46.748;8.102;2023-06-04T11:39:36;30.00;35.40
15574;DHT22;7888;46.748;8.102;2023-06-04T11:42:05;30.10;35.60
15574;DHT22;7888;46.748;8.102;2023-06-04T11:44:33;30.10;35.30
15574;DHT22;7888;46.748;8.102;2023-06-04T11:46:59;30.20;35.20
15574;DHT22;7888;46.748;8.102;2023-06-04T11:49:25;30.30;35.50
15574;DHT22;7888;46.748;8.102;2023-06-04T11:51:53;30.30;35.50
15574;DHT22;7888;46.748;8.102;2023-06-04T11:54:20;30.40;35.30
15574;DHT22;7888;46.748;8.102;2023-06-04T11:56:51;30.40;35.10
15574;DHT22;7888;46.748;8.102;2023-06-04T11:59:18;30.50;35.10
15574;DHT22;7888;46.748;8.102;2023-06-04T12:01:46;30.60;35.00
15574;DHT22;7888;46.748;8.102;2023-06-04T12:04:17;30.70;34.90
15574;DHT22;7888;46.748;8.102;2023-06-04T12:06:54;30.70;34.40
15574;DHT22;7888;46.748;8.102;2023-06-04T12:09:29;30.80;34.20
15574;DHT22;7888;46.748;8.102;2023-06-04T12:12:01;31.00;34.50
15574;DHT22;7888;46.748;8.102;2023-06-04T12:14:29;31.00;34.30
15574;DHT22;7888;46.748;8.102;2023-06-04T12:16:59;31.20;34.10
15574;DHT22;7888;46.748;8.102;2023-06-04T12:19:32;31.20;33.40
15574;DHT22;7888;46.748;8.102;2023-06-04T12:22:06;31.30;33.70
15574;DHT22;7888;46.748;8.102;2023-06-04T12:24:34;31.20;33.20
15574;DHT22;7888;46.748;8.102;2023-06-04T12:27:11;31.20;33.60
15574;DHT22;7888;46.748;8.102;2023-06-04T12:29:37;31.20;33.60
15574;DHT22;7888;46.748;8.102;2023-06-04T12:32:06;31.20;33.40
15574;DHT22;7888;46.748;8.102;2023-06-04T12:34:38;31.20;33.40
15574;DHT22;7888;46.748;8.102;2023-06-04T12:37:07;31.10;33.10
15574;DHT22;7888;46.748;8.102;2023-06-04T12:39:36;31.00;33.30
15574;DHT22;7888;46.748;8.102;2023-06-04T12:42:06;31.00;33.10
15574;DHT22;7888;46.748;8.102;2023-06-04T12:44:35;30.90;33.30
15574;DHT22;7888;46.748;8.102;2023-06-04T12:47:02;30.80;33.10
15574;DHT22;7888;46.748;8.102;2023-06-04T12:49:28;30.70;33.30
15574;DHT22;7888;46.748;8.102;2023-06-04T12:51:54;30.60;33.60
15574;DHT22;7888;46.748;8.102;2023-06-04T12:54:20;30.50;33.80
15574;DHT22;7888;46.748;8.102;2023-06-04T12:56:46;30.40;33.70
15574;DHT22;7888;46.748;8.102;2023-06-04T12:59:12;30.30;33.90
15574;DHT22;7888;46.748;8.102;2023-06-04T13:01:38;30.10;33.90
15574;DHT22;7888;46.748;8.102;2023-06-04T13:04:04;30.00;34.00
15574;DHT22;7888;46.748;8.102;2023-06-04T13:06:31;29.90;33.90
15574;DHT22;7888;46.748;8.102;2023-06-04T13:08:57;29.80;34.30
15574;DHT22;7888;46.748;8.102;2023-06-04T13:11:23;29.60;34.00
15574;DHT22;7888;46.748;8.102;2023-06-04T13:13:49;29.50;34.20
15574;DHT22;7888;46.748;8.102;2023-06-04T13:16:15;29.40;34.40
15574;DHT22;7888;46.748;8.102;2023-06-04T13:18:41;29.20;34.30
15574;DHT22;7888;46.748;8.102;2023-06-04T13:21:07;29.10;34.80
15574;DHT22;7888;46.748;8.102;2023-06-04T13:23:32;29.00;34.60
15574;DHT22;7888;46.748;8.102;2023-06-04T13:25:58;29.00;35.10
15574;DHT22;7888;46.748;8.102;2023-06-04T13:28:24;29.00;35.40
15574;DHT22;7888;46.748;8.102;2023-06-04T13:30:50;29.00;35.70
15574;DHT22;7888;46.748;8.102;2023-06-04T13:33:15;29.10;35.50
15574;DHT22;7888;46.748;8.102;2023-06-04T13:35:41;29.20;36.00
15574;DHT22;7888;46.748;8.102;2023-06-04T13:38:09;29.30;36.10
15574;DHT22;7888;46.748;8.102;2023-06-04T13:40:36;29.50;35.90
15574;DHT22;7888;46.748;8.102;2023-06-04T13:43:02;29.70;35.60
15574;DHT22;7888;46.748;8.102;2023-06-04T13:45:28;29.90;36.50
15574;DHT22;7888;46.748;8.102;2023-06-04T13:47:54;30.10;35.30
15574;DHT22;7888;46.748;8.102;2023-06-04T13:50:20;30.30;35.20
15574;DHT22;7888;46.748;8.102;2023-06-04T13:52:45;30.40;35.00
15574;DHT22;7888;46.748;8.102;2023-06-04T13:55:14;30.60;34.40
15574;DHT22;7888;46.748;8.102;2023-06-04T13:57:40;30.70;34.20
15574;DHT22;7888;46.748;8.102;2023-06-04T14:00:06;30.90;34.30
15574;DHT22;7888;46.748;8.102;2023-06-04T14:02:33;31.00;33.70
15574;DHT22;7888;46.748;8.102;2023-06-04T14:04:59;31.00;33.60
15574;DHT22;7888;46.748;8.102;2023-06-04T14:07:24;31.10;33.50
15574;DHT22;7888;46.748;8.102;2023-06-04T14:09:50;31.20;33.50
15574;DHT22;7888;46.748;8.102;2023-06-04T14:12:23;31.20;33.40
15574;DHT22;7888;46.748;8.102;2023-06-04T14:14:49;31.20;33.20
15574;DHT22;7888;46.748;8.102;2023-06-04T14:17:16;31.30;33.00
15574;DHT22;7888;46.748;8.102;2023-06-04T14:19:42;31.30;32.70
15574;DHT22;7888;46.748;8.102;2023-06-04T14:22:09;31.40;32.60
15574;DHT22;7888;46.748;8.102;2023-06-04T14:24:35;31.40;32.20
15574;DHT22;7888;46.748;8.102;2023-06-04T14:27:01;31.40;32.00
15574;DHT22;7888;46.748;8.102;2023-06-04T14:29:27;31.30;31.90
15574;DHT22;7888;46.748;8.102;2023-06-04T14:31:52;31.30;31.80
15574;DHT22;7888;46.748;8.102;2023-06-04T14:34:18;31.20;31.80
15574;DHT22;7888;46.748;8.102;2023-06-04T14:36:45;31.20;31.70
15574;DHT22;7888;46.748;8.102;2023-06-04T14:39:12;31.20;31.60
15574;DHT22;7888;46.748;8.102;2023-06-04T14:41:38;31.20;31.70
15574;DHT22;7888;46.748;8.102;2023-06-04T14:44:03;31.10;32.00
15574;DHT22;7888;46.748;8.102;2023-06-04T14:46:29;31.10;32.10
15574;DHT22;7888;46.748;8.102;2023-06-04T14:48:55;31.00;31.80
15574;DHT22;7888;46.748;8.102;2023-06-04T14:51:21;31.00;31.70
15574;DHT22;7888;46.748;8.102;2023-06-04T14:53:48;30.90;31.30
15574;DHT22;7888;46.748;8.102;2023-06-04T14:56:16;30.80;31.60
15574;DHT22;7888;46.748;8.102;2023-06-04T14:58:42;30.70;31.60
15574;DHT22;7888;46.748;8.102;2023-06-04T15:01:07;30.60;31.30
15574;DHT22;7888;46.748;8.102;2023-06-04T15:03:37;30.50;31.40
15574;DHT22;7888;46.748;8.102;2023-06-04T15:06:04;30.40;31.70
15574;DHT22;7888;46.748;8.102;2023-06-04T15:08:30;30.30;31.60
15574;DHT22;7888;46.748;8.102;2023-06-04T15:10:56;30.10;31.30
15574;DHT22;7888;46.748;8.102;2023-06-04T15:13:21;30.00;31.40
15574;DHT22;7888;46.748;8.102;2023-06-04T15:15:47;29.90;31.00
15574;DHT22;7888;46.748;8.102;2023-06-04T15:18:13;29.90;31.20
15574;DHT22;7888;46.748;8.102;2023-06-04T15:20:38;29.70;31.10
15574;DHT22;7888;46.748;8.102;2023-06-04T15:23:04;29.60;31.60
15574;DHT22;7888;46.748;8.102;2023-06-04T15:25:30;29.30;31.90
15574;DHT22;7888;46.748;8.102;2023-06-04T15:27:56;29.10;32.10
15574;DHT22;7888;46.748;8.102;2023-06-04T15:30:22;28.80;32.30
15574;DHT22;7888;46.748;8.102;2023-06-04T15:32:48;28.50;32.40
15574;DHT22;7888;46.748;8.102;2023-06-04T15:35:14;28.20;32.20
15574;DHT22;7888;46.748;8.102;2023-06-04T15:37:39;27.90;32.10
15574;DHT22;7888;46.748;8.102;2023-06-04T15:40:05;27.50;32.20
15574;DHT22;7888;46.748;8.102;2023-06-04T15:42:33;27.30;32.30
15574;DHT22;7888;46.748;8.102;2023-06-04T15:44:59;27.00;33.00
15574;DHT22;7888;46.748;8.102;2023-06-04T15:47:25;26.80;32.10
15574;DHT22;7888;46.748;8.102;2023-06-04T15:49:51;26.60;32.20
15574;DHT22;7888;46.748;8.102;2023-06-04T15:52:16;26.50;32.40
15574;DHT22;7888;46.748;8.102;2023-06-04T15:54:42;26.30;32.30
15574;DHT22;7888;46.748;8.102;2023-06-04T15:57:08;26.20;32.40